Main page
METAR-TAF:

METAR-TAF

Airports :

Dibrugarh Airport

Dibrugarh, India

latitude: 27-29N, longitude: 095-01E, elevation: 110 m

Current weather observation

The report was made 19 minutes ago, at 07:00 UTC
Wind 4 kt from the North/Northeast
Temperature 24°C
Humidity 50%
Pressure 1016 hPa
Visibility: 5000 m
Few clouds at a height of 2000 ft
Scattered clouds at a height of 10000 ft
haze

METAR: VEMN 160700Z 03004KT 5000 HZ FEW020 SCT100 24/13 Q1016 NOSIG

Time: 12:49 (07:19 UTC)

Forecast

The report was made 2 hours and 19 minutes ago, at 05:00 UTC
Forecast valid from 16 at 06 UTC to 16 at 15 UTC
Wind 3 kt from the East/Southeast
Visibility: 5000 m
Few clouds at a height of 2000 ft
Scattered clouds at a height of 10000 ft
haze
Becoming
from 16 at 12 UTC to 16 at 15 UTC
Wind 3 kt from the Northeast
Visibility: 3000 m
Few clouds at a height of 2000 ft
Broken clouds at a height of 10000 ft
haze

TAF: VEMN 160500Z 1606/1615 12003KT 5000 HZ FEW020 SCT100 BECMG 1612/1615 05003KT 3000 HZ FEW020 BKN100

Weather observations and forecasts of more than 4000 airports (METAR and TAF reports).

The available stations are represented by yellow and red dots on the map.

Hover mouse over dot to see the name of the station.

Then click to see weather observations and forecasts.

To change the map : click on the green buttons with a black cross to zoom in, on the green button with a dash to zoom out, or on the green arrows for adjacent maps.


METAR-TAF: